Seward, Illinois
Current Conditions -  °F | °C
As of 2:15 PM on Friday 21 Nov 2014 (Local Time) from KFEP Reporting Station
Clear Clear  
Wind Chill: 21°   Ceiling: Unl
Heat Index: 32°   Visibility: 10mi
Dew Point:   Wind: 16mph
Humidity: 30%   Direction: 180°S
Pressure: 30.31"   Gusts: 21mph
Location:  42.24°N, 89.36°W
Report Text: KFEP 212015Z AUTO 18014G18KT 10SM CLR 00/M16 A3031 RMK AO2 T00001157
Loading
Personal Weather Stations






























Interactive Weather Map New forecast layout! Learn more

10-Day Weather Forecast

Advertisements
Track Severe Weather on mobile